OEJN/JED METAR and TAF weather

Enter ICAO airport designator
Station Type Date Time Source
OEJN METAR 2018/12/19 03:00 UTC NOAA

OEJN 190300Z 03003KT 9999 FEW040 22/18 Q1015 NOSIG


Station Type Date Time Source
OEJN Decoded METAR 2018/12/19 03:00 UTC NOAA

Jeddah King Abdul Aziz International Airport , Saudi Arabia (OEJN) 21-42N 039-11E 17M
Dec 18, 2018 - 10:00 PM EST / 2018.12.19 0300 UTC
Wind: from the NNE (030 degrees) at 3 MPH (3 KT):0
Visibility: greater than 7 mile(s):0
Sky conditions: mostly clear
Temperature: 71 F (22 C)
Dew Point: 64 F (18 C)
Relative Humidity: 78%
Pressure (altimeter): 29.97 in. Hg (1015 hPa)
ob: OEJN 190300Z 03003KT 9999 FEW040 22/18 Q1015 NOSIG
cycle: 3

Station Type Date Time Source
OEJN TAF 2018/12/18 18:03 UTC NOAA

TAF OEJN 181700Z 1818/1924 01010KT 9999 FEW040 SCT100
BECMG 1822/1824 VRB03KT


Example: see airport list